sensor_id;sensor_type;location;lat;lon;timestamp;temperature;humidity
21184;DHT22;18176;49.502;11.754;2023-08-07T00:03:24;11.40;99.90
21184;DHT22;18176;49.502;11.754;2023-08-07T00:07:24;11.40;99.90
21184;DHT22;18176;49.502;11.754;2023-08-07T00:11:24;11.40;99.90
21184;DHT22;18176;49.502;11.754;2023-08-07T00:15:28;11.40;99.90
21184;DHT22;18176;49.502;11.754;2023-08-07T00:19:30;11.40;99.90
21184;DHT22;18176;49.502;11.754;2023-08-07T00:23:30;11.40;99.90
21184;DHT22;18176;49.502;11.754;2023-08-07T00:27:31;11.30;99.90
21184;DHT22;18176;49.502;11.754;2023-08-07T00:31:34;11.30;99.90
21184;DHT22;18176;49.502;11.754;2023-08-07T00:35:35;11.30;99.90
21184;DHT22;18176;49.502;11.754;2023-08-07T00:39:35;11.30;99.90
21184;DHT22;18176;49.502;11.754;2023-08-07T00:43:36;11.30;99.90
21184;DHT22;18176;49.502;11.754;2023-08-07T00:47:39;11.30;99.90
21184;DHT22;18176;49.502;11.754;2023-08-07T00:51:39;11.30;99.90
21184;DHT22;18176;49.502;11.754;2023-08-07T00:55:40;11.30;99.90
21184;DHT22;18176;49.502;11.754;2023-08-07T00:59:42;11.30;99.90
21184;DHT22;18176;49.502;11.754;2023-08-07T01:03:46;11.30;99.90
21184;DHT22;18176;49.502;11.754;2023-08-07T01:07:47;11.30;99.90
21184;DHT22;18176;49.502;11.754;2023-08-07T01:11:57;11.30;99.90
21184;DHT22;18176;49.502;11.754;2023-08-07T01:16:10;11.30;99.90
21184;DHT22;18176;49.502;11.754;2023-08-07T01:20:20;11.20;99.90
21184;DHT22;18176;49.502;11.754;2023-08-07T01:24:23;11.20;99.90
21184;DHT22;18176;49.502;11.754;2023-08-07T01:28:29;11.20;99.90
21184;DHT22;18176;49.502;11.754;2023-08-07T01:32:35;11.20;99.90
21184;DHT22;18176;49.502;11.754;2023-08-07T01:36:43;11.20;99.90
21184;DHT22;18176;49.502;11.754;2023-08-07T01:40:49;11.20;99.90
21184;DHT22;18176;49.502;11.754;2023-08-07T01:44:51;11.20;99.90
21184;DHT22;18176;49.502;11.754;2023-08-07T01:48:51;11.20;99.90
21184;DHT22;18176;49.502;11.754;2023-08-07T01:52:52;11.20;99.90
21184;DHT22;18176;49.502;11.754;2023-08-07T01:56:55;11.20;99.90
21184;DHT22;18176;49.502;11.754;2023-08-07T02:00:55;11.20;99.90
21184;DHT22;18176;49.502;11.754;2023-08-07T02:04:56;11.20;99.90
21184;DHT22;18176;49.502;11.754;2023-08-07T02:08:56;11.10;99.90
21184;DHT22;18176;49.502;11.754;2023-08-07T02:13:00;11.10;99.90
21184;DHT22;18176;49.502;11.754;2023-08-07T02:17:02;11.10;99.90
21184;DHT22;18176;49.502;11.754;2023-08-07T02:21:04;11.10;99.90
21184;DHT22;18176;49.502;11.754;2023-08-07T02:25:06;11.20;99.90
21184;DHT22;18176;49.502;11.754;2023-08-07T02:29:10;11.20;99.90
21184;DHT22;18176;49.502;11.754;2023-08-07T02:33:10;11.10;99.90
21184;DHT22;18176;49.502;11.754;2023-08-07T02:37:11;11.10;99.90
21184;DHT22;18176;49.502;11.754;2023-08-07T02:41:13;11.10;99.90
21184;DHT22;18176;49.502;11.754;2023-08-07T02:45:16;11.10;99.90
21184;DHT22;18176;49.502;11.754;2023-08-07T02:49:16;11.10;99.90
21184;DHT22;18176;49.502;11.754;2023-08-07T02:53:17;11.00;99.90
21184;DHT22;18176;49.502;11.754;2023-08-07T02:57:17;11.00;99.90
21184;DHT22;18176;49.502;11.754;2023-08-07T03:01:20;11.00;99.90
21184;DHT22;18176;49.502;11.754;2023-08-07T03:05:21;11.00;99.90
21184;DHT22;18176;49.502;11.754;2023-08-07T03:09:21;11.00;99.90
21184;DHT22;18176;49.502;11.754;2023-08-07T03:13:21;11.00;99.90
21184;DHT22;18176;49.502;11.754;2023-08-07T03:17:25;11.00;99.90
21184;DHT22;18176;49.502;11.754;2023-08-07T03:21:25;10.90;99.90
21184;DHT22;18176;49.502;11.754;2023-08-07T03:25:25;10.90;99.90
21184;DHT22;18176;49.502;11.754;2023-08-07T03:29:26;10.90;99.90
21184;DHT22;18176;49.502;11.754;2023-08-07T03:33:30;10.90;99.90
21184;DHT22;18176;49.502;11.754;2023-08-07T03:37:31;10.90;99.90
21184;DHT22;18176;49.502;11.754;2023-08-07T03:41:31;10.90;99.90
21184;DHT22;18176;49.502;11.754;2023-08-07T03:45:32;10.80;99.90
21184;DHT22;18176;49.502;11.754;2023-08-07T03:49:35;10.90;99.90
21184;DHT22;18176;49.502;11.754;2023-08-07T03:53:36;10.80;99.90
21184;DHT22;18176;49.502;11.754;2023-08-07T03:57:36;10.80;99.90
21184;DHT22;18176;49.502;11.754;2023-08-07T04:01:37;10.80;99.90
21184;DHT22;18176;49.502;11.754;2023-08-07T04:05:40;10.80;99.90
21184;DHT22;18176;49.502;11.754;2023-08-07T04:09:40;10.80;99.90
21184;DHT22;18176;49.502;11.754;2023-08-07T04:13:40;10.70;99.90
21184;DHT22;18176;49.502;11.754;2023-08-07T04:17:41;10.70;99.90
21184;DHT22;18176;49.502;11.754;2023-08-07T04:21:44;10.70;99.90
21184;DHT22;18176;49.502;11.754;2023-08-07T04:25:45;10.70;99.90
21184;DHT22;18176;49.502;11.754;2023-08-07T04:29:46;10.70;99.90
21184;DHT22;18176;49.502;11.754;2023-08-07T04:33:47;10.70;99.90
21184;DHT22;18176;49.502;11.754;2023-08-07T04:37:52;10.80;99.90
21184;DHT22;18176;49.502;11.754;2023-08-07T04:41:53;10.80;99.90
21184;DHT22;18176;49.502;11.754;2023-08-07T04:45:53;10.70;99.90
21184;DHT22;18176;49.502;11.754;2023-08-07T04:49:53;10.80;99.90
21184;DHT22;18176;49.502;11.754;2023-08-07T04:53:57;10.70;99.90
21184;DHT22;18176;49.502;11.754;2023-08-07T04:57:57;10.70;99.90
21184;DHT22;18176;49.502;11.754;2023-08-07T05:01:58;10.70;99.90
21184;DHT22;18176;49.502;11.754;2023-08-07T05:05:59;10.70;99.90
21184;DHT22;18176;49.502;11.754;2023-08-07T05:10:03;10.80;99.90
21184;DHT22;18176;49.502;11.754;2023-08-07T05:14:04;10.70;99.90
21184;DHT22;18176;49.502;11.754;2023-08-07T05:18:04;10.70;99.90
21184;DHT22;18176;49.502;11.754;2023-08-07T05:22:05;10.70;99.90
21184;DHT22;18176;49.502;11.754;2023-08-07T05:26:09;10.80;99.90
21184;DHT22;18176;49.502;11.754;2023-08-07T05:30:11;10.70;99.90
21184;DHT22;18176;49.502;11.754;2023-08-07T05:34:12;10.80;99.90
21184;DHT22;18176;49.502;11.754;2023-08-07T05:38:12;10.80;99.90
21184;DHT22;18176;49.502;11.754;2023-08-07T05:42:16;10.80;99.90
21184;DHT22;18176;49.502;11.754;2023-08-07T05:46:16;10.70;99.90
21184;DHT22;18176;49.502;11.754;2023-08-07T05:50:17;10.80;99.90
21184;DHT22;18176;49.502;11.754;2023-08-07T05:54:17;10.70;99.90
21184;DHT22;18176;49.502;11.754;2023-08-07T05:58:20;10.70;99.90
21184;DHT22;18176;49.502;11.754;2023-08-07T06:02:21;10.70;99.90
21184;DHT22;18176;49.502;11.754;2023-08-07T06:06:21;10.70;99.90
21184;DHT22;18176;49.502;11.754;2023-08-07T06:10:22;10.70;99.90
21184;DHT22;18176;49.502;11.754;2023-08-07T06:14:25;10.70;99.90
21184;DHT22;18176;49.502;11.754;2023-08-07T06:18:25;10.70;99.90
21184;DHT22;18176;49.502;11.754;2023-08-07T06:22:27;10.70;99.90
21184;DHT22;18176;49.502;11.754;2023-08-07T06:26:27;10.70;99.90
21184;DHT22;18176;49.502;11.754;2023-08-07T06:30:31;10.70;99.90
21184;DHT22;18176;49.502;11.754;2023-08-07T06:34:32;10.60;99.90
21184;DHT22;18176;49.502;11.754;2023-08-07T06:38:35;10.60;99.90
21184;DHT22;18176;49.502;11.754;2023-08-07T06:42:36;10.60;99.90
21184;DHT22;18176;49.502;11.754;2023-08-07T06:46:39;10.60;99.90
21184;DHT22;18176;49.502;11.754;2023-08-07T06:50:40;10.60;99.90
21184;DHT22;18176;49.502;11.754;2023-08-07T06:54:40;10.70;99.90
21184;DHT22;18176;49.502;11.754;2023-08-07T06:58:40;10.70;99.90
21184;DHT22;18176;49.502;11.754;2023-08-07T07:02:44;10.80;99.90
21184;DHT22;18176;49.502;11.754;2023-08-07T07:06:44;10.90;99.90
21184;DHT22;18176;49.502;11.754;2023-08-07T07:10:45;11.00;99.90
21184;DHT22;18176;49.502;11.754;2023-08-07T07:14:45;11.00;99.90
21184;DHT22;18176;49.502;11.754;2023-08-07T07:18:49;11.00;99.90
21184;DHT22;18176;49.502;11.754;2023-08-07T07:22:50;11.00;99.90
21184;DHT22;18176;49.502;11.754;2023-08-07T07:26:51;11.00;99.90
21184;DHT22;18176;49.502;11.754;2023-08-07T07:30:51;11.20;99.90
21184;DHT22;18176;49.502;11.754;2023-08-07T07:34:54;11.40;99.90
21184;DHT22;18176;49.502;11.754;2023-08-07T07:38:55;11.30;99.90
21184;DHT22;18176;49.502;11.754;2023-08-07T07:42:55;11.30;99.90
21184;DHT22;18176;49.502;11.754;2023-08-07T07:46:57;11.30;99.90
21184;DHT22;18176;49.502;11.754;2023-08-07T07:51:01;11.30;99.90
21184;DHT22;18176;49.502;11.754;2023-08-07T07:55:02;11.30;99.90
21184;DHT22;18176;49.502;11.754;2023-08-07T07:59:03;11.30;99.90
21184;DHT22;18176;49.502;11.754;2023-08-07T08:03:05;11.40;99.90
21184;DHT22;18176;49.502;11.754;2023-08-07T08:07:09;11.50;99.90
21184;DHT22;18176;49.502;11.754;2023-08-07T08:11:10;11.50;99.90
21184;DHT22;18176;49.502;11.754;2023-08-07T08:15:10;11.50;99.90
21184;DHT22;18176;49.502;11.754;2023-08-07T08:19:10;11.40;99.90
21184;DHT22;18176;49.502;11.754;2023-08-07T08:23:15;11.40;99.90
21184;DHT22;18176;49.502;11.754;2023-08-07T08:27:15;11.40;99.90
21184;DHT22;18176;49.502;11.754;2023-08-07T08:31:16;11.60;99.90
21184;DHT22;18176;49.502;11.754;2023-08-07T08:35:18;11.60;99.90
21184;DHT22;18176;49.502;11.754;2023-08-07T08:39:22;11.60;99.90
21184;DHT22;18176;49.502;11.754;2023-08-07T08:43:24;11.60;99.90
21184;DHT22;18176;49.502;11.754;2023-08-07T08:47:26;11.60;99.90
21184;DHT22;18176;49.502;11.754;2023-08-07T08:51:27;11.60;99.90
21184;DHT22;18176;49.502;11.754;2023-08-07T08:55:31;11.60;99.90
21184;DHT22;18176;49.502;11.754;2023-08-07T08:59:32;11.50;99.90
21184;DHT22;18176;49.502;11.754;2023-08-07T09:03:33;11.60;99.90
21184;DHT22;18176;49.502;11.754;2023-08-07T09:07:35;11.60;99.90
21184;DHT22;18176;49.502;11.754;2023-08-07T09:11:39;11.60;99.90
21184;DHT22;18176;49.502;11.754;2023-08-07T09:15:41;11.50;99.90
21184;DHT22;18176;49.502;11.754;2023-08-07T09:19:47;11.50;99.90
21184;DHT22;18176;49.502;11.754;2023-08-07T09:23:48;11.40;99.90
21184;DHT22;18176;49.502;11.754;2023-08-07T09:27:51;11.40;99.90
21184;DHT22;18176;49.502;11.754;2023-08-07T09:31:52;11.40;99.90
21184;DHT22;18176;49.502;11.754;2023-08-07T09:35:57;11.60;99.90
21184;DHT22;18176;49.502;11.754;2023-08-07T09:40:00;11.60;99.90
21184;DHT22;18176;49.502;11.754;2023-08-07T09:44:09;11.50;99.90
21184;DHT22;18176;49.502;11.754;2023-08-07T09:48:10;11.60;99.90
21184;DHT22;18176;49.502;11.754;2023-08-07T09:52:12;11.60;99.90
21184;DHT22;18176;49.502;11.754;2023-08-07T09:56:14;11.70;99.90
21184;DHT22;18176;49.502;11.754;2023-08-07T10:00:18;11.70;99.90
21184;DHT22;18176;49.502;11.754;2023-08-07T10:04:19;11.80;99.90
21184;DHT22;18176;49.502;11.754;2023-08-07T10:08:22;11.70;99.90
21184;DHT22;18176;49.502;11.754;2023-08-07T10:12:22;11.60;99.90
21184;DHT22;18176;49.502;11.754;2023-08-07T10:16:26;11.70;99.90
21184;DHT22;18176;49.502;11.754;2023-08-07T10:20:28;11.60;99.90
21184;DHT22;18176;49.502;11.754;2023-08-07T10:24:30;11.80;99.90
21184;DHT22;18176;49.502;11.754;2023-08-07T10:28:33;12.20;99.90
21184;DHT22;18176;49.502;11.754;2023-08-07T10:32:41;12.40;99.90
21184;DHT22;18176;49.502;11.754;2023-08-07T10:36:44;12.50;99.90
21184;DHT22;18176;49.502;11.754;2023-08-07T10:41:01;12.30;99.90
21184;DHT22;18176;49.502;11.754;2023-08-07T10:45:06;12.40;99.90
21184;DHT22;18176;49.502;11.754;2023-08-07T10:49:09;12.20;99.90
21184;DHT22;18176;49.502;11.754;2023-08-07T10:53:10;12.20;99.90
21184;DHT22;18176;49.502;11.754;2023-08-07T10:57:19;12.10;99.90
21184;DHT22;18176;49.502;11.754;2023-08-07T11:01:22;11.80;99.90
21184;DHT22;18176;49.502;11.754;2023-08-07T11:05:38;11.70;99.90
21184;DHT22;18176;49.502;11.754;2023-08-07T11:09:39;11.70;99.90
21184;DHT22;18176;49.502;11.754;2023-08-07T11:13:40;11.50;99.90
21184;DHT22;18176;49.502;11.754;2023-08-07T11:17:40;11.60;99.90
21184;DHT22;18176;49.502;11.754;2023-08-07T11:21:49;11.50;99.90
21184;DHT22;18176;49.502;11.754;2023-08-07T11:25:51;11.50;99.90
21184;DHT22;18176;49.502;11.754;2023-08-07T11:29:52;11.50;99.90
21184;DHT22;18176;49.502;11.754;2023-08-07T11:33:54;11.50;99.90
21184;DHT22;18176;49.502;11.754;2023-08-07T11:37:57;11.50;99.90
21184;DHT22;18176;49.502;11.754;2023-08-07T11:42:00;11.50;99.90
21184;DHT22;18176;49.502;11.754;2023-08-07T11:46:01;11.50;99.90
21184;DHT22;18176;49.502;11.754;2023-08-07T11:50:03;11.50;99.90
21184;DHT22;18176;49.502;11.754;2023-08-07T11:54:14;11.50;99.90
21184;DHT22;18176;49.502;11.754;2023-08-07T11:58:16;11.70;99.90
21184;DHT22;18176;49.502;11.754;2023-08-07T12:02:16;11.70;99.90
21184;DHT22;18176;49.502;11.754;2023-08-07T12:06:23;11.70;99.90
21184;DHT22;18176;49.502;11.754;2023-08-07T12:10:27;11.70;99.90
21184;DHT22;18176;49.502;11.754;2023-08-07T12:14:29;11.70;99.90
21184;DHT22;18176;49.502;11.754;2023-08-07T12:18:30;11.90;99.90
21184;DHT22;18176;49.502;11.754;2023-08-07T12:22:32;12.00;99.90
21184;DHT22;18176;49.502;11.754;2023-08-07T12:26:36;12.00;99.90
21184;DHT22;18176;49.502;11.754;2023-08-07T12:30:36;12.10;99.90
21184;DHT22;18176;49.502;11.754;2023-08-07T12:34:37;12.10;99.90
21184;DHT22;18176;49.502;11.754;2023-08-07T12:38:41;12.20;99.90
21184;DHT22;18176;49.502;11.754;2023-08-07T12:42:44;12.20;99.90
21184;DHT22;18176;49.502;11.754;2023-08-07T12:46:45;12.20;99.90
21184;DHT22;18176;49.502;11.754;2023-08-07T12:50:46;12.10;99.90
21184;DHT22;18176;49.502;11.754;2023-08-07T12:54:46;12.10;99.90
21184;DHT22;18176;49.502;11.754;2023-08-07T12:58:49;12.10;99.90
21184;DHT22;18176;49.502;11.754;2023-08-07T13:02:50;12.20;99.90
21184;DHT22;18176;49.502;11.754;2023-08-07T13:06:52;12.20;99.90
21184;DHT22;18176;49.502;11.754;2023-08-07T13:10:53;12.30;99.90
21184;DHT22;18176;49.502;11.754;2023-08-07T13:14:56;12.60;99.90
21184;DHT22;18176;49.502;11.754;2023-08-07T13:18:57;12.80;99.90
21184;DHT22;18176;49.502;11.754;2023-08-07T13:23:02;12.80;99.90
21184;DHT22;18176;49.502;11.754;2023-08-07T13:27:04;13.00;99.90
21184;DHT22;18176;49.502;11.754;2023-08-07T13:31:08;13.50;99.90
21184;DHT22;18176;49.502;11.754;2023-08-07T13:35:08;14.70;99.90
21184;DHT22;18176;49.502;11.754;2023-08-07T13:39:09;14.60;99.90
21184;DHT22;18176;49.502;11.754;2023-08-07T13:43:10;14.40;99.90
21184;DHT22;18176;49.502;11.754;2023-08-07T13:47:13;14.00;99.90
21184;DHT22;18176;49.502;11.754;2023-08-07T13:51:15;13.40;99.90
21184;DHT22;18176;49.502;11.754;2023-08-07T13:55:15;12.80;99.90
21184;DHT22;18176;49.502;11.754;2023-08-07T13:59:15;12.40;99.90
21184;DHT22;18176;49.502;11.754;2023-08-07T14:03:19;12.30;99.90
21184;DHT22;18176;49.502;11.754;2023-08-07T14:07:19;12.30;99.90
21184;DHT22;18176;49.502;11.754;2023-08-07T14:11:20;12.20;99.90
21184;DHT22;18176;49.502;11.754;2023-08-07T14:15:25;12.10;99.90
21184;DHT22;18176;49.502;11.754;2023-08-07T14:19:28;12.00;99.90
21184;DHT22;18176;49.502;11.754;2023-08-07T14:23:28;11.90;99.90
21184;DHT22;18176;49.502;11.754;2023-08-07T14:27:30;11.90;99.90
21184;DHT22;18176;49.502;11.754;2023-08-07T14:31:31;11.80;99.90
21184;DHT22;18176;49.502;11.754;2023-08-07T14:35:34;11.90;99.90
21184;DHT22;18176;49.502;11.754;2023-08-07T14:39:34;11.80;99.90
21184;DHT22;18176;49.502;11.754;2023-08-07T14:43:35;11.80;99.90
21184;DHT22;18176;49.502;11.754;2023-08-07T14:47:35;11.80;99.90
21184;DHT22;18176;49.502;11.754;2023-08-07T14:51:38;11.90;99.90
21184;DHT22;18176;49.502;11.754;2023-08-07T14:55:39;12.00;99.90
21184;DHT22;18176;49.502;11.754;2023-08-07T14:59:40;11.90;99.90
21184;DHT22;18176;49.502;11.754;2023-08-07T15:03:40;11.90;99.90
21184;DHT22;18176;49.502;11.754;2023-08-07T15:07:43;11.90;99.90
21184;DHT22;18176;49.502;11.754;2023-08-07T15:11:44;11.80;99.90
21184;DHT22;18176;49.502;11.754;2023-08-07T15:15:44;11.80;99.90
21184;DHT22;18176;49.502;11.754;2023-08-07T15:19:45;11.70;99.90
21184;DHT22;18176;49.502;11.754;2023-08-07T15:23:48;11.80;99.90
21184;DHT22;18176;49.502;11.754;2023-08-07T15:27:48;11.80;99.90
21184;DHT22;18176;49.502;11.754;2023-08-07T15:31:49;11.80;99.90
21184;DHT22;18176;49.502;11.754;2023-08-07T15:35:50;11.80;99.90
21184;DHT22;18176;49.502;11.754;2023-08-07T15:39:56;11.80;99.90
21184;DHT22;18176;49.502;11.754;2023-08-07T15:43:56;11.80;99.90
21184;DHT22;18176;49.502;11.754;2023-08-07T15:47:56;11.80;99.90
21184;DHT22;18176;49.502;11.754;2023-08-07T15:51:57;11.90;99.90
21184;DHT22;18176;49.502;11.754;2023-08-07T15:56:00;12.00;99.90
21184;DHT22;18176;49.502;11.754;2023-08-07T16:00:01;12.20;99.90
21184;DHT22;18176;49.502;11.754;2023-08-07T16:04:09;12.20;99.90
21184;DHT22;18176;49.502;11.754;2023-08-07T16:08:10;12.50;99.90
21184;DHT22;18176;49.502;11.754;2023-08-07T16:12:14;12.50;99.90
21184;DHT22;18176;49.502;11.754;2023-08-07T16:16:16;12.50;99.90
21184;DHT22;18176;49.502;11.754;2023-08-07T16:20:17;12.50;99.90
21184;DHT22;18176;49.502;11.754;2023-08-07T16:24:18;12.50;99.90
21184;DHT22;18176;49.502;11.754;2023-08-07T16:28:21;12.40;99.90
21184;DHT22;18176;49.502;11.754;2023-08-07T16:32:22;12.40;99.90
21184;DHT22;18176;49.502;11.754;2023-08-07T16:36:23;12.60;99.90
21184;DHT22;18176;49.502;11.754;2023-08-07T16:40:23;12.80;99.90
21184;DHT22;18176;49.502;11.754;2023-08-07T16:44:26;13.10;99.90
21184;DHT22;18176;49.502;11.754;2023-08-07T16:48:27;13.60;99.90
21184;DHT22;18176;49.502;11.754;2023-08-07T16:52:28;13.80;99.90
21184;DHT22;18176;49.502;11.754;2023-08-07T16:56:28;13.40;99.90
21184;DHT22;18176;49.502;11.754;2023-08-07T17:00:32;13.30;99.90
21184;DHT22;18176;49.502;11.754;2023-08-07T17:04:33;13.20;99.90
21184;DHT22;18176;49.502;11.754;2023-08-07T17:08:35;13.40;99.90
21184;DHT22;18176;49.502;11.754;2023-08-07T17:12:35;13.70;99.90
21184;DHT22;18176;49.502;11.754;2023-08-07T17:16:38;13.50;99.90
21184;DHT22;18176;49.502;11.754;2023-08-07T17:20:38;13.40;99.90
21184;DHT22;18176;49.502;11.754;2023-08-07T17:24:39;13.60;99.90
21184;DHT22;18176;49.502;11.754;2023-08-07T17:28:39;14.00;99.90
21184;DHT22;18176;49.502;11.754;2023-08-07T17:32:43;14.50;99.90
21184;DHT22;18176;49.502;11.754;2023-08-07T17:36:43;14.70;99.90
21184;DHT22;18176;49.502;11.754;2023-08-07T17:40:44;14.70;99.90
21184;DHT22;18176;49.502;11.754;2023-08-07T17:44:44;14.60;99.90
21184;DHT22;18176;49.502;11.754;2023-08-07T17:48:50;14.40;99.90
21184;DHT22;18176;49.502;11.754;2023-08-07T17:52:50;14.20;99.90
21184;DHT22;18176;49.502;11.754;2023-08-07T17:56:52;13.90;99.90
21184;DHT22;18176;49.502;11.754;2023-08-07T18:00:53;13.30;99.90
21184;DHT22;18176;49.502;11.754;2023-08-07T18:04:57;13.00;99.90
21184;DHT22;18176;49.502;11.754;2023-08-07T18:08:58;12.80;99.90
21184;DHT22;18176;49.502;11.754;2023-08-07T18:12:59;12.70;99.90
21184;DHT22;18176;49.502;11.754;2023-08-07T18:16:59;12.60;99.90
21184;DHT22;18176;49.502;11.754;2023-08-07T18:21:03;12.40;99.90
21184;DHT22;18176;49.502;11.754;2023-08-07T18:25:04;12.40;99.90
21184;DHT22;18176;49.502;11.754;2023-08-07T18:29:05;12.30;99.90
21184;DHT22;18176;49.502;11.754;2023-08-07T18:33:05;12.20;99.90
21184;DHT22;18176;49.502;11.754;2023-08-07T18:37:09;12.00;99.90
21184;DHT22;18176;49.502;11.754;2023-08-07T18:41:10;11.80;99.90
21184;DHT22;18176;49.502;11.754;2023-08-07T18:45:11;11.80;99.90
21184;DHT22;18176;49.502;11.754;2023-08-07T18:49:12;11.60;99.90
21184;DHT22;18176;49.502;11.754;2023-08-07T18:53:16;11.50;99.90
21184;DHT22;18176;49.502;11.754;2023-08-07T18:57:16;11.40;99.90
21184;DHT22;18176;49.502;11.754;2023-08-07T19:01:17;11.30;99.90
21184;DHT22;18176;49.502;11.754;2023-08-07T19:05:17;11.30;99.90
21184;DHT22;18176;49.502;11.754;2023-08-07T19:09:20;11.30;99.90
21184;DHT22;18176;49.502;11.754;2023-08-07T19:13:22;11.20;99.90
21184;DHT22;18176;49.502;11.754;2023-08-07T19:17:22;11.00;99.90
21184;DHT22;18176;49.502;11.754;2023-08-07T19:21:26;10.90;99.90
21184;DHT22;18176;49.502;11.754;2023-08-07T19:25:29;10.80;99.90
21184;DHT22;18176;49.502;11.754;2023-08-07T19:29:29;10.80;99.90
21184;DHT22;18176;49.502;11.754;2023-08-07T19:33:30;10.80;99.90
21184;DHT22;18176;49.502;11.754;2023-08-07T19:37:31;10.90;99.90
21184;DHT22;18176;49.502;11.754;2023-08-07T19:41:35;10.90;99.90
21184;DHT22;18176;49.502;11.754;2023-08-07T19:45:36;10.90;99.90
21184;DHT22;18176;49.502;11.754;2023-08-07T19:49:36;10.90;99.90
21184;DHT22;18176;49.502;11.754;2023-08-07T19:53:37;10.90;99.90
21184;DHT22;18176;49.502;11.754;2023-08-07T19:57:54;11.00;99.90
21184;DHT22;18176;49.502;11.754;2023-08-07T20:01:55;11.00;99.90
21184;DHT22;18176;49.502;11.754;2023-08-07T20:05:56;10.90;99.90
21184;DHT22;18176;49.502;11.754;2023-08-07T20:09:56;10.90;99.90
21184;DHT22;18176;49.502;11.754;2023-08-07T20:13:59;10.90;99.90
21184;DHT22;18176;49.502;11.754;2023-08-07T20:18:00;10.90;99.90
21184;DHT22;18176;49.502;11.754;2023-08-07T20:22:01;10.80;99.90
21184;DHT22;18176;49.502;11.754;2023-08-07T20:26:01;10.70;99.90
21184;DHT22;18176;49.502;11.754;2023-08-07T20:30:06;10.70;99.90
21184;DHT22;18176;49.502;11.754;2023-08-07T20:34:07;10.60;99.90
21184;DHT22;18176;49.502;11.754;2023-08-07T20:38:08;10.60;99.90
21184;DHT22;18176;49.502;11.754;2023-08-07T20:42:09;10.50;99.90
21184;DHT22;18176;49.502;11.754;2023-08-07T20:46:12;10.50;99.90
21184;DHT22;18176;49.502;11.754;2023-08-07T20:50:14;10.60;99.90
21184;DHT22;18176;49.502;11.754;2023-08-07T20:54:15;10.70;99.90
21184;DHT22;18176;49.502;11.754;2023-08-07T20:58:16;11.00;99.90
21184;DHT22;18176;49.502;11.754;2023-08-07T21:02:19;11.10;99.90
21184;DHT22;18176;49.502;11.754;2023-08-07T21:06:19;11.20;99.90
21184;DHT22;18176;49.502;11.754;2023-08-07T21:10:20;11.20;99.90
21184;DHT22;18176;49.502;11.754;2023-08-07T21:14:20;11.20;99.90
21184;DHT22;18176;49.502;11.754;2023-08-07T21:18:23;11.10;99.90
21184;DHT22;18176;49.502;11.754;2023-08-07T21:22:24;11.10;99.90
21184;DHT22;18176;49.502;11.754;2023-08-07T21:26:25;11.20;99.90
21184;DHT22;18176;49.502;11.754;2023-08-07T21:30:25;11.20;99.90
21184;DHT22;18176;49.502;11.754;2023-08-07T21:34:28;11.30;99.90
21184;DHT22;18176;49.502;11.754;2023-08-07T21:38:29;11.20;99.90
21184;DHT22;18176;49.502;11.754;2023-08-07T21:42:29;11.10;99.90
21184;DHT22;18176;49.502;11.754;2023-08-07T21:46:30;11.00;99.90
21184;DHT22;18176;49.502;11.754;2023-08-07T21:50:33;10.90;99.90
21184;DHT22;18176;49.502;11.754;2023-08-07T21:54:34;10.80;99.90
21184;DHT22;18176;49.502;11.754;2023-08-07T21:58:34;10.70;99.90
21184;DHT22;18176;49.502;11.754;2023-08-07T22:02:34;10.70;99.90
21184;DHT22;18176;49.502;11.754;2023-08-07T22:06:39;10.60;99.90
21184;DHT22;18176;49.502;11.754;2023-08-07T22:10:40;10.60;99.90
21184;DHT22;18176;49.502;11.754;2023-08-07T22:14:40;10.50;99.90
21184;DHT22;18176;49.502;11.754;2023-08-07T22:18:40;10.40;99.90
21184;DHT22;18176;49.502;11.754;2023-08-07T22:22:43;10.40;99.90
21184;DHT22;18176;49.502;11.754;2023-08-07T22:26:44;10.30;99.90
21184;DHT22;18176;49.502;11.754;2023-08-07T22:30:44;10.20;99.90
21184;DHT22;18176;49.502;11.754;2023-08-07T22:34:45;10.20;99.90
21184;DHT22;18176;49.502;11.754;2023-08-07T22:38:47;10.10;99.90
21184;DHT22;18176;49.502;11.754;2023-08-07T22:42:48;9.90;99.90
21184;DHT22;18176;49.502;11.754;2023-08-07T22:46:48;9.90;99.90
21184;DHT22;18176;49.502;11.754;2023-08-07T22:50:49;9.80;99.90
21184;DHT22;18176;49.502;11.754;2023-08-07T22:54:52;9.60;99.90
21184;DHT22;18176;49.502;11.754;2023-08-07T22:58:53;9.50;99.90
21184;DHT22;18176;49.502;11.754;2023-08-07T23:02:54;9.40;99.90
21184;DHT22;18176;49.502;11.754;2023-08-07T23:06:55;9.30;99.90
21184;DHT22;18176;49.502;11.754;2023-08-07T23:10:58;9.20;99.90
21184;DHT22;18176;49.502;11.754;2023-08-07T23:14:58;9.10;99.90
21184;DHT22;18176;49.502;11.754;2023-08-07T23:18:58;9.00;99.90
21184;DHT22;18176;49.502;11.754;2023-08-07T23:22:59;9.00;99.90
21184;DHT22;18176;49.502;11.754;2023-08-07T23:27:02;8.90;99.90
21184;DHT22;18176;49.502;11.754;2023-08-07T23:31:03;8.90;99.90
21184;DHT22;18176;49.502;11.754;2023-08-07T23:35:04;8.80;99.90
21184;DHT22;18176;49.502;11.754;2023-08-07T23:39:06;8.80;99.90
21184;DHT22;18176;49.502;11.754;2023-08-07T23:43:09;8.70;99.90
21184;DHT22;18176;49.502;11.754;2023-08-07T23:47:10;8.60;99.90
21184;DHT22;18176;49.502;11.754;2023-08-07T23:51:10;8.60;99.90
21184;DHT22;18176;49.502;11.754;2023-08-07T23:55:11;8.60;99.90
21184;DHT22;18176;49.502;11.754;2023-08-07T23:59:14;8.60;99.90
